Time;durP1;ratioP1;P1;durP2;ratioP2;P2;SDS_P1;SDS_P2;PMS_P1;PMS_P2;Temp;Humidity;BMP_temperature;BMP_pressure;BME280_temperature;BME280_humidity;BME280_pressure;Samples;Min_cycle;Max_cycle;Signal;HPM_P1;HPM_P2
2022/02/05 00:01:54;;;;;;;10.00;2.03;;;21.80;67.60;;;;;;5032892;28;20584;-74
2022/02/05 00:04:23;;;;;;;7.20;1.67;;;21.80;67.50;;;;;;5031719;28;20627;-74
2022/02/05 00:06:53;;;;;;;12.13;2.30;;;21.80;68.80;;;;;;5028456;28;20196;-74
2022/02/05 00:43:52;;;;;;;14.03;1.70;;;22.50;64.60;;;;;;5035708;28;20183;-79
2022/02/05 00:46:21;;;;;;;9.93;1.87;;;22.40;62.60;;;;;;5035436;28;20188;-74
2022/02/05 00:48:49;;;;;;;5.43;1.23;;;22.30;60.30;;;;;;5035657;28;20185;-74
2022/02/05 00:51:28;;;;;;;7.93;1.67;;;22.30;59.10;;;;;;5035201;28;20192;-73
2022/02/05 00:54:06;;;;;;;5.80;1.33;;;22.40;58.50;;;;;;5035711;28;20246;-75
2022/02/05 00:59:18;;;;;;;7.63;1.37;;;23.30;57.60;;;;;;5035237;28;20243;-75
2022/02/05 01:01:48;;;;;;;5.33;1.20;;;23.80;53.60;;;;;;5030904;28;20555;-76
2022/02/05 01:04:15;;;;;;;9.73;1.40;;;24.30;50.50;;;;;;5035377;28;20693;-76
2022/02/05 01:06:44;;;;;;;7.33;1.20;;;24.30;50.30;;;;;;5030600;28;20181;-82
2022/02/05 01:09:18;;;;;;;4.03;1.20;;;24.30;49.10;;;;;;5033425;28;20192;-76
2022/02/05 01:11:46;;;;;;;7.67;1.50;;;24.60;48.20;;;;;;5030073;28;20283;-74
2022/02/05 01:14:17;;;;;;;6.73;1.20;;;25.30;49.20;;;;;;5031674;28;20580;-76
2022/02/05 01:16:58;;;;;;;5.33;1.43;;;25.40;46.80;;;;;;5034210;28;20547;-76
2022/02/05 01:22:13;;;;;;;6.63;1.23;;;25.00;47.40;;;;;;5035154;28;20308;-74
2022/02/05 01:24:45;;;;;;;6.77;1.37;;;24.70;47.70;;;;;;5035229;28;20306;-73
2022/02/05 01:27:25;;;;;;;6.23;1.80;;;24.40;50.10;;;;;;5034594;28;20220;-73
2022/02/05 01:32:24;;;;;;;8.00;1.60;;;24.00;54.00;;;;;;5034951;28;20216;-71
2022/02/05 01:49:18;;;;;;;3.60;1.43;;;25.30;44.20;;;;;;5032425;28;20231;-74
2022/02/05 01:57:19;;;;;;;6.33;1.30;;;25.50;44.00;;;;;;5034806;28;20547;-75
2022/02/05 02:06:56;;;;;;;7.40;1.57;;;25.80;42.30;;;;;;4972369;28;20546;-74
2022/02/05 02:17:55;;;;;;;2.17;0.53;;;25.90;39.60;;;;;;5032090;28;20793;-76
2022/02/05 02:28:45;;;;;;;4.40;1.00;;;26.30;38.40;;;;;;5023915;28;20643;-72
2022/02/05 02:31:18;;;;;;;7.63;1.20;;;26.40;38.40;;;;;;5031870;28;20192;-78
2022/02/05 02:33:49;;;;;;;3.87;1.20;;;26.60;39.10;;;;;;5033250;28;20204;-75
2022/02/05 02:36:33;;;;;;;5.17;1.20;;;26.60;39.50;;;;;;5033911;28;20192;-73
2022/02/05 02:39:18;;;;;;;4.33;1.13;;;26.40;40.30;;;;;;5031830;28;20586;-74
2022/02/05 02:41:56;;;;;;;3.47;0.90;;;25.80;41.50;;;;;;5047530;28;20228;-72
2022/02/05 02:44:24;;;;;;;6.07;1.30;;;26.00;41.20;;;;;;5032416;28;20231;-73
2022/02/05 02:46:51;;;;;;;3.50;1.00;;;26.30;40.40;;;;;;5033903;28;20193;-79
2022/02/05 02:49:35;;;;;;;5.97;1.20;;;26.10;41.20;;;;;;5032685;28;20176;-73
2022/02/05 02:57:34;;;;;;;4.50;1.40;;;26.60;42.00;;;;;;5032211;28;20191;-73
2022/02/05 03:00:06;;;;;;;5.73;1.10;;;26.00;44.60;;;;;;5032437;28;20246;-73
2022/02/05 03:02:34;;;;;;;5.57;1.13;;;26.50;43.40;;;;;;5032012;28;20237;-73
2022/02/05 03:05:01;;;;;;;3.03;0.70;;;25.90;42.80;;;;;;5032857;28;20200;-76
2022/02/05 03:07:28;;;;;;;4.10;1.00;;;26.00;42.10;;;;;;5032627;28;20181;-75
2022/02/05 03:09:56;;;;;;;4.23;1.07;;;26.10;43.10;;;;;;5033408;28;20200;-73
2022/02/05 03:12:24;;;;;;;4.53;1.27;;;25.60;44.30;;;;;;5032192;28;20566;-79
2022/02/05 03:14:52;;;;;;;3.67;0.90;;;26.30;44.10;;;;;;5033005;28;20212;-81
2022/02/05 03:17:25;;;;;;;5.80;1.10;;;26.50;43.40;;;;;;5032449;28;20181;-72
2022/02/05 03:19:55;;;;;;;7.57;1.33;;;26.50;43.50;;;;;;5032978;28;20728;-74
2022/02/05 03:22:25;;;;;;;6.13;1.10;;;26.80;44.40;;;;;;5031819;28;20177;-74
2022/02/05 03:24:52;;;;;;;10.90;1.40;;;26.30;44.90;;;;;;5032804;28;20191;-75
2022/02/05 03:27:21;;;;;;;4.43;1.10;;;25.90;46.00;;;;;;5029985;28;20556;-76
2022/02/05 03:29:50;;;;;;;4.33;1.27;;;25.40;47.00;;;;;;5027004;28;20188;-77
2022/02/05 03:32:19;;;;;;;8.20;1.20;;;26.10;46.20;;;;;;5028438;28;20601;-75
2022/02/05 03:34:47;;;;;;;4.50;1.00;;;26.40;44.00;;;;;;5031341;28;20204;-75
2022/02/05 03:37:17;;;;;;;7.80;2.00;;;26.20;45.30;;;;;;5031414;28;20188;-71
2022/02/05 03:39:44;;;;;;;6.50;2.13;;;26.00;45.30;;;;;;5028349;28;20551;-78
2022/02/05 03:42:12;;;;;;;3.77;1.10;;;26.30;44.20;;;;;;5030982;28;20184;-76
2022/02/05 03:44:39;;;;;;;6.23;1.10;;;26.60;43.00;;;;;;5032359;28;20189;-73
2022/02/05 03:47:07;;;;;;;4.67;1.33;;;27.00;42.40;;;;;;5030486;28;20184;-74
2022/02/05 03:49:34;;;;;;;3.23;1.00;;;26.30;43.90;;;;;;5030625;28;20268;-75
2022/02/05 03:52:01;;;;;;;3.70;1.00;;;26.90;42.50;;;;;;5032555;28;20184;-75
2022/02/05 03:54:31;;;;;;;3.73;0.87;;;27.20;41.30;;;;;;5031664;28;20221;-75
2022/02/05 03:56:58;;;;;;;5.93;1.00;;;27.40;40.10;;;;;;5035342;28;20558;-74
2022/02/05 03:59:26;;;;;;;6.70;1.33;;;27.50;39.60;;;;;;5031340;28;20267;-74
2022/02/05 04:01:56;;;;;;;7.43;1.03;;;28.20;40.00;;;;;;5030024;28;20185;-75
2022/02/05 04:04:25;;;;;;;4.60;1.13;;;28.40;39.70;;;;;;5030619;28;20187;-76
2022/02/05 04:06:52;;;;;;;8.03;1.50;;;28.10;39.50;;;;;;5030322;28;20234;-75
2022/02/05 04:09:27;;;;;;;5.37;1.37;;;27.40;41.90;;;;;;5030148;28;20267;-73
2022/02/05 04:17:25;;;;;;;9.77;1.80;;;25.70;49.40;;;;;;5024713;28;20988;-76
2022/02/05 04:19:52;;;;;;;6.27;1.53;;;26.80;47.50;;;;;;5045423;28;20184;-75
2022/02/05 04:22:27;;;;;;;4.23;1.43;;;27.30;45.40;;;;;;5031749;28;20690;-75
2022/02/05 04:24:54;;;;;;;6.07;1.13;;;27.50;45.70;;;;;;5029400;28;20656;-75
2022/02/05 04:27:21;;;;;;;8.37;1.90;;;28.30;44.20;;;;;;5031760;28;20205;-73
2022/02/05 04:29:49;;;;;;;5.77;1.07;;;28.70;43.90;;;;;;5024149;28;20188;-76
2022/02/05 04:32:16;;;;;;;6.03;1.20;;;27.50;46.00;;;;;;5030792;28;20192;-74
2022/02/05 04:34:43;;;;;;;5.63;1.30;;;26.70;47.80;;;;;;5030380;28;20212;-73
2022/02/05 04:37:11;;;;;;;13.13;2.20;;;26.10;50.20;;;;;;5030468;28;20261;-73
2022/02/05 04:39:45;;;;;;;4.83;1.40;;;25.30;52.00;;;;;;5029385;28;20248;-73
2022/02/05 04:42:20;;;;;;;6.80;1.60;;;25.30;52.00;;;;;;5029618;28;20188;-76
2022/02/05 04:45:19;;;;;;;6.90;1.43;;;26.30;49.30;;;;;;5031160;28;20176;-73
2022/02/05 04:48:37;;;;;;;6.33;1.33;;;27.20;47.50;;;;;;5028155;28;20223;-75
2022/02/05 05:01:43;;;;;;;8.00;1.47;;;26.80;47.20;;;;;;5031475;28;20180;-74
2022/02/05 05:12:30;;;;;;;9.87;1.50;;;25.20;50.20;;;;;;5030743;28;20652;-75
2022/02/05 05:15:29;;;;;;;5.13;0.93;;;25.30;49.50;;;;;;5028249;28;20631;-72
2022/02/05 05:20:57;;;;;;;10.97;1.83;;;26.10;47.50;;;;;;5031416;28;20198;-72
2022/02/05 05:23:24;;;;;;;9.03;1.37;;;25.90;47.80;;;;;;5026692;28;20227;-72
2022/02/05 05:25:52;;;;;;;6.00;1.43;;;26.00;47.20;;;;;;5031307;28;20188;-72
2022/02/05 05:28:19;;;;;;;7.00;1.30;;;26.00;46.60;;;;;;5033860;28;20190;-74
2022/02/05 05:30:46;;;;;;;6.23;1.03;;;25.70;47.20;;;;;;5034740;28;20223;-72
2022/02/05 05:33:14;;;;;;;9.53;1.50;;;24.90;49.80;;;;;;5049930;28;20180;-70
2022/02/05 05:35:41;;;;;;;4.90;1.20;;;24.40;51.10;;;;;;5035203;28;20659;-74
2022/02/05 05:38:09;;;;;;;5.37;1.73;;;24.30;50.10;;;;;;5033514;28;20173;-76
2022/02/05 05:40:37;;;;;;;6.93;1.20;;;24.20;49.40;;;;;;5037953;28;20220;-74
2022/02/05 05:43:16;;;;;;;10.33;1.60;;;24.10;49.20;;;;;;5033973;28;20185;-72
2022/02/05 05:48:43;;;;;;;5.17;1.20;;;24.20;49.30;;;;;;5031683;28;20189;-71
2022/02/05 05:51:10;;;;;;;9.70;1.73;;;24.30;48.80;;;;;;5034178;28;20559;-74
2022/02/05 05:53:38;;;;;;;7.70;1.53;;;24.30;48.60;;;;;;5029867;28;20173;-72
2022/02/05 05:56:06;;;;;;;4.70;1.20;;;24.20;49.10;;;;;;5037474;28;20258;-71
2022/02/05 05:58:34;;;;;;;8.17;1.37;;;23.90;49.70;;;;;;5033882;28;20181;-72
2022/02/05 06:01:02;;;;;;;9.70;1.50;;;23.90;49.80;;;;;;5034484;28;20279;-70
2022/02/05 06:03:29;;;;;;;7.03;1.80;;;23.80;49.80;;;;;;5033843;28;20560;-70
2022/02/05 06:05:56;;;;;;;6.90;1.50;;;23.70;50.00;;;;;;5032076;28;20865;-71
2022/02/05 06:08:24;;;;;;;9.63;1.30;;;23.60;49.80;;;;;;5033986;28;20212;-72
2022/02/05 06:10:51;;;;;;;8.53;1.53;;;23.50;50.60;;;;;;5034046;28;20237;-71
2022/02/05 06:13:19;;;;;;;9.77;1.40;;;23.60;51.30;;;;;;5032617;28;20192;-73
2022/02/05 06:15:47;;;;;;;8.23;1.63;;;23.70;51.50;;;;;;5032476;28;20342;-72
2022/02/05 06:18:15;;;;;;;8.90;1.50;;;23.70;51.00;;;;;;5031574;28;20200;-72
2022/02/05 06:20:42;;;;;;;6.20;1.53;;;23.70;51.20;;;;;;5038479;28;20199;-74
2022/02/05 06:23:09;;;;;;;10.80;1.50;;;23.70;51.10;;;;;;5032745;28;20189;-73
2022/02/05 06:25:39;;;;;;;7.73;1.80;;;23.60;51.10;;;;;;5036542;28;20184;-75
2022/02/05 06:28:06;;;;;;;3.97;1.10;;;23.70;50.70;;;;;;5033678;28;20531;-77
2022/02/05 06:30:33;;;;;;;9.30;1.43;;;23.80;50.40;;;;;;5032821;28;20709;-71
2022/02/05 06:33:01;;;;;;;7.30;2.03;;;23.80;50.60;;;;;;5028578;28;20636;-71
2022/02/05 06:35:28;;;;;;;7.40;1.63;;;24.10;50.30;;;;;;5032240;28;20638;-73
2022/02/05 06:37:55;;;;;;;9.07;1.50;;;23.90;50.40;;;;;;5033209;28;20622;-74
2022/02/05 06:40:23;;;;;;;7.53;1.60;;;23.70;51.40;;;;;;5033090;28;20209;-71
2022/02/05 06:42:50;;;;;;;5.60;1.57;;;23.50;52.10;;;;;;5032172;28;20195;-74
2022/02/05 06:45:18;;;;;;;6.73;1.30;;;23.50;51.80;;;;;;5030327;28;20255;-74
2022/02/05 06:47:46;;;;;;;8.03;1.90;;;23.60;51.90;;;;;;5032223;28;20214;-77
2022/02/05 06:50:14;;;;;;;7.73;1.63;;;23.50;52.20;;;;;;5032036;28;20311;-75
2022/02/05 06:52:43;;;;;;;9.53;2.17;;;23.50;52.30;;;;;;5031749;28;20181;-71
2022/02/05 06:55:11;;;;;;;11.23;1.77;;;23.50;52.30;;;;;;5030350;28;20277;-73
2022/02/05 06:57:39;;;;;;;8.00;1.97;;;23.50;52.60;;;;;;5033410;28;20180;-72
2022/02/05 07:00:07;;;;;;;8.53;2.00;;;23.40;53.40;;;;;;5033072;28;20184;-72
2022/02/05 07:02:35;;;;;;;10.70;2.00;;;23.50;52.80;;;;;;5029618;28;20187;-72
2022/02/05 07:05:03;;;;;;;12.63;1.83;;;23.40;53.00;;;;;;5032126;28;20678;-79
2022/02/05 07:07:30;;;;;;;9.13;1.67;;;23.40;52.40;;;;;;5031851;28;20203;-76
2022/02/05 07:09:58;;;;;;;7.90;1.40;;;23.30;52.60;;;;;;5047817;28;20650;-74
2022/02/05 07:12:25;;;;;;;10.10;1.50;;;23.30;51.70;;;;;;5028857;28;20532;-78
2022/02/05 07:15:06;;;;;;;7.27;1.97;;;23.20;52.00;;;;;;5030956;28;20209;-74
2022/02/05 07:20:41;;;;;;;4.63;1.47;;;23.30;52.10;;;;;;5034253;28;20542;-77
2022/02/05 07:31:12;;;;;;;5.23;2.10;;;22.90;51.90;;;;;;5038392;28;20187;-73
2022/02/05 07:33:39;;;;;;;7.87;1.80;;;22.90;52.60;;;;;;5032116;28;20208;-75
2022/02/05 07:36:07;;;;;;;8.47;2.07;;;22.90;52.80;;;;;;5033498;28;20259;-78
2022/02/05 07:38:34;;;;;;;7.03;1.90;;;22.90;53.80;;;;;;5035016;28;20180;-73
2022/02/05 07:41:02;;;;;;;8.70;2.27;;;23.00;54.40;;;;;;5031735;28;20335;-72
2022/02/05 07:43:36;;;;;;;13.87;2.27;;;22.80;55.10;;;;;;5032109;28;20631;-73
2022/02/05 07:46:08;;;;;;;15.40;2.27;;;22.80;55.40;;;;;;5032045;28;20251;-74
2022/02/05 07:48:36;;;;;;;8.80;1.87;;;22.80;55.20;;;;;;5028779;28;20216;-73
2022/02/05 07:51:04;;;;;;;12.97;2.03;;;22.80;54.90;;;;;;5031634;28;20173;-72
2022/02/05 07:53:32;;;;;;;11.83;1.83;;;22.70;55.50;;;;;;5028771;28;20193;-74
2022/02/05 07:56:00;;;;;;;7.80;1.97;;;22.70;55.80;;;;;;5030532;28;20286;-75
2022/02/05 07:58:28;;;;;;;11.20;2.80;;;22.70;56.00;;;;;;5033237;28;20176;-73
2022/02/05 08:00:55;;;;;;;14.43;1.87;;;22.80;55.90;;;;;;5031306;28;20196;-73
2022/02/05 08:03:22;;;;;;;10.70;1.97;;;22.80;55.90;;;;;;5030780;28;20271;-73
2022/02/05 08:05:50;;;;;;;9.33;1.90;;;22.70;55.30;;;;;;5033245;28;20275;-80
2022/02/05 08:08:21;;;;;;;9.83;1.90;;;22.70;55.00;;;;;;5030821;28;20239;-74
2022/02/05 08:10:59;;;;;;;7.93;1.77;;;22.60;55.10;;;;;;5031215;28;20883;-73
2022/02/05 08:13:30;;;;;;;5.27;1.70;;;22.60;55.50;;;;;;5033526;28;20240;-74
2022/02/05 08:16:09;;;;;;;6.93;1.63;;;22.60;55.30;;;;;;5031556;28;20216;-73
2022/02/05 08:18:38;;;;;;;9.00;2.10;;;22.40;55.10;;;;;;5063500;28;20583;-72
2022/02/05 08:21:06;;;;;;;9.20;1.70;;;22.40;54.70;;;;;;5046917;28;20298;-73
2022/02/05 08:23:34;;;;;;;8.73;1.93;;;22.40;54.90;;;;;;5028120;28;20173;-73
2022/02/05 08:26:01;;;;;;;12.67;2.40;;;22.40;55.10;;;;;;5032100;28;20662;-75
2022/02/05 08:28:29;;;;;;;12.47;1.87;;;22.40;55.20;;;;;;5031111;28;20181;-82
2022/02/05 08:30:57;;;;;;;10.93;1.73;;;22.30;56.10;;;;;;5034330;28;20196;-76
2022/02/05 08:33:24;;;;;;;7.37;2.00;;;22.30;56.70;;;;;;5031799;28;20173;-76
2022/02/05 08:35:51;;;;;;;9.47;2.00;;;22.30;56.60;;;;;;5032241;28;20212;-76
2022/02/05 08:38:19;;;;;;;13.77;2.30;;;22.20;56.20;;;;;;5031264;28;20177;-74
2022/02/05 08:40:47;;;;;;;12.30;2.20;;;22.20;56.30;;;;;;5033329;28;20227;-74
2022/02/05 08:43:15;;;;;;;8.60;1.97;;;22.20;56.50;;;;;;5032389;28;20267;-75
2022/02/05 08:45:42;;;;;;;7.20;1.90;;;22.20;56.80;;;;;;5025596;28;20187;-75
2022/02/05 08:48:11;;;;;;;11.90;2.00;;;22.20;56.70;;;;;;5029308;28;20258;-72
2022/02/05 08:50:40;;;;;;;17.37;1.90;;;22.10;57.10;;;;;;5030889;28;20195;-73
2022/02/05 08:53:09;;;;;;;10.73;1.90;;;22.10;58.00;;;;;;5029872;28;20263;-76
2022/02/05 08:55:36;;;;;;;12.60;2.00;;;22.00;57.90;;;;;;5033990;28;20212;-73
2022/02/05 08:58:08;;;;;;;8.83;2.00;;;22.00;58.20;;;;;;5032851;28;20600;-74
2022/02/05 09:00:44;;;;;;;11.37;1.93;;;22.00;58.30;;;;;;5035556;28;20519;-73
2022/02/05 09:03:22;;;;;;;8.67;2.03;;;22.10;58.50;;;;;;5035146;28;20643;-74
2022/02/05 09:05:50;;;;;;;10.43;1.80;;;22.00;58.60;;;;;;5031067;28;20177;-72
2022/02/05 09:08:29;;;;;;;8.17;1.57;;;22.10;58.50;;;;;;5036175;28;20172;-74
2022/02/05 09:11:11;;;;;;;8.83;1.63;;;22.00;57.90;;;;;;5035510;28;20238;-73
2022/02/05 09:16:09;;;;;;;10.77;2.20;;;22.00;57.00;;;;;;5035049;28;20216;-75
2022/02/05 09:18:36;;;;;;;12.13;2.60;;;22.00;56.80;;;;;;5035146;28;20172;-72
2022/02/05 09:21:04;;;;;;;12.20;2.03;;;22.00;57.30;;;;;;5035232;28;20708;-75
2022/02/05 09:23:32;;;;;;;10.50;2.03;;;22.00;57.00;;;;;;5034572;28;20355;-73
2022/02/05 09:26:00;;;;;;;10.20;2.03;;;22.00;57.10;;;;;;5035399;28;20173;-73
2022/02/05 09:28:30;;;;;;;8.83;2.03;;;21.90;57.40;;;;;;5032577;28;20178;-73
2022/02/05 09:33:31;;;;;;;7.17;1.80;;;22.00;57.80;;;;;;5034099;28;20185;-73
2022/02/05 09:35:59;;;;;;;10.77;1.87;;;21.90;57.80;;;;;;5035184;28;20208;-72
2022/02/05 09:38:27;;;;;;;15.17;2.30;;;21.90;57.60;;;;;;5034409;28;20181;-75
2022/02/05 09:40:54;;;;;;;10.73;1.93;;;21.90;57.40;;;;;;5035097;28;20231;-74
2022/02/05 09:43:26;;;;;;;11.43;2.10;;;21.90;57.40;;;;;;5034267;28;20196;-75
2022/02/05 09:45:57;;;;;;;10.20;2.10;;;21.90;57.30;;;;;;5033388;28;20268;-74
2022/02/05 09:48:31;;;;;;;11.10;2.53;;;21.90;57.30;;;;;;5034479;28;20176;-72
2022/02/05 09:51:05;;;;;;;8.67;1.83;;;21.90;57.20;;;;;;5034860;28;20184;-72
2022/02/05 09:53:34;;;;;;;12.07;1.80;;;21.90;57.20;;;;;;5048822;28;20545;-75
2022/02/05 09:56:01;;;;;;;9.30;2.23;;;21.90;57.10;;;;;;5034401;28;20292;-75
2022/02/05 09:58:31;;;;;;;8.47;1.77;;;21.90;57.40;;;;;;5034603;28;20177;-74
2022/02/05 10:01:10;;;;;;;16.07;2.17;;;21.90;57.80;;;;;;5033634;28;20188;-75
2022/02/05 10:03:39;;;;;;;6.80;1.90;;;21.90;58.00;;;;;;5033320;28;20208;-73
2022/02/05 10:06:14;;;;;;;11.17;1.97;;;21.80;58.10;;;;;;5035468;28;20180;-72
2022/02/05 10:09:08;;;;;;;10.70;2.30;;;21.80;58.40;;;;;;5037357;28;20179;-73
2022/02/05 10:12:01;;;;;;;8.67;2.43;;;21.90;58.30;;;;;;5031255;28;20207;-73
2022/02/05 10:14:34;;;;;;;15.30;2.77;;;21.90;59.20;;;;;;5027886;28;20205;-72
2022/02/05 10:17:05;;;;;;;12.73;2.67;;;21.80;60.20;;;;;;5033058;28;20184;-74
2022/02/05 10:19:55;;;;;;;11.77;1.90;;;21.80;60.60;;;;;;5030814;28;20184;-75
2022/02/05 10:22:23;;;;;;;10.63;2.63;;;21.80;60.80;;;;;;5033628;28;20180;-72
2022/02/05 10:24:53;;;;;;;16.07;2.50;;;21.70;61.00;;;;;;5037050;28;20337;-74
2022/02/05 10:27:32;;;;;;;12.40;2.67;;;21.70;61.20;;;;;;5033987;28;20588;-74
2022/02/05 10:30:10;;;;;;;8.03;2.17;;;21.60;61.60;;;;;;5032771;28;20523;-73
2022/02/05 10:32:48;;;;;;;8.80;2.10;;;21.50;61.60;;;;;;5029070;28;20491;-75
2022/02/05 10:38:04;;;;;;;15.17;2.40;;;21.50;62.00;;;;;;5032498;28;20223;-76
2022/02/05 10:43:13;;;;;;;12.73;2.23;;;21.50;62.50;;;;;;5028433;28;20198;-73
2022/02/05 10:45:46;;;;;;;8.10;1.73;;;21.40;62.50;;;;;;5029205;28;20180;-75
2022/02/05 10:48:22;;;;;;;14.67;2.00;;;21.40;62.70;;;;;;5034793;28;20176;-72
2022/02/05 10:50:53;;;;;;;11.23;2.10;;;21.50;62.30;;;;;;5034093;28;20215;-73
2022/02/05 10:53:25;;;;;;;13.93;1.97;;;21.50;61.90;;;;;;5031987;28;20255;-73
2022/02/05 10:56:05;;;;;;;20.23;2.20;;;21.50;62.00;;;;;;5033160;28;20224;-73
2022/02/05 11:07:19;;;;;;;12.80;2.10;;;21.60;62.00;;;;;;5031863;28;20195;-72
2022/02/05 11:09:53;;;;;;;11.93;2.03;;;21.60;62.70;;;;;;5032455;28;20189;-73
2022/02/05 11:20:23;;;;;;;17.37;2.87;;;21.60;64.80;;;;;;5033185;28;20212;-77
2022/02/05 11:22:59;;;;;;;12.67;2.30;;;21.60;64.40;;;;;;5030879;28;20176;-73
2022/02/05 11:25:36;;;;;;;11.43;2.33;;;21.60;64.00;;;;;;5031173;28;20177;-73
2022/02/05 11:28:04;;;;;;;21.87;2.50;;;21.60;63.50;;;;;;5031868;28;20176;-73
2022/02/05 11:30:42;;;;;;;13.80;2.47;;;21.60;63.20;;;;;;5029209;28;20189;-71
2022/02/05 11:33:25;;;;;;;14.87;2.90;;;21.60;62.90;;;;;;5033831;28;20178;-74
2022/02/05 11:38:34;;;;;;;12.03;2.13;;;21.60;62.10;;;;;;5032212;28;20183;-72
2022/02/05 11:41:03;;;;;;;9.33;1.73;;;21.60;60.90;;;;;;5029120;28;20216;-75
2022/02/05 11:43:33;;;;;;;9.63;2.10;;;21.60;60.20;;;;;;5030141;28;20183;-74
2022/02/05 11:46:21;;;;;;;13.13;2.07;;;21.60;60.20;;;;;;5032097;28;20184;-72
2022/02/05 11:49:00;;;;;;;10.07;2.30;;;21.60;60.40;;;;;;5031683;28;20311;-73
2022/02/05 11:51:45;;;;;;;10.93;2.00;;;21.60;60.40;;;;;;5027905;28;20181;-77
2022/02/05 11:54:18;;;;;;;11.60;1.97;;;21.60;60.10;;;;;;5031449;28;20631;-72
2022/02/05 11:57:01;;;;;;;8.20;1.73;;;21.50;60.40;;;;;;5032676;28;20258;-76
2022/02/05 11:59:46;;;;;;;8.90;2.10;;;21.50;59.40;;;;;;5025870;28;20182;-73
2022/02/05 12:02:21;;;;;;;15.70;2.13;;;21.50;59.60;;;;;;5046140;28;20188;-76
2022/02/05 12:05:11;;;;;;;21.67;2.43;;;21.40;60.30;;;;;;5027069;28;20537;-74
2022/02/05 12:07:58;;;;;;;12.20;2.07;;;21.50;60.50;;;;;;5031520;28;20188;-74
2022/02/05 12:10:45;;;;;;;14.27;2.23;;;21.40;61.00;;;;;;5032099;28;20184;-72
2022/02/05 12:13:38;;;;;;;14.53;2.10;;;21.40;61.20;;;;;;5031693;28;20540;-71
2022/02/05 12:16:10;;;;;;;13.27;2.23;;;21.40;61.10;;;;;;5029523;28;20327;-72
2022/02/05 12:18:55;;;;;;;10.63;1.90;;;21.40;60.20;;;;;;5047310;28;20180;-74
2022/02/05 12:21:30;;;;;;;11.13;2.27;;;21.30;60.30;;;;;;5031700;28;20541;-73
2022/02/05 12:26:29;;;;;;;15.07;2.37;;;21.30;60.50;;;;;;5032323;28;20263;-74
2022/02/05 12:29:01;;;;;;;17.57;2.60;;;21.20;61.00;;;;;;5030795;28;20537;-73
2022/02/05 12:31:36;;;;;;;8.57;2.43;;;21.20;60.90;;;;;;5058137;28;20184;-75
2022/02/05 12:34:08;;;;;;;12.47;2.40;;;21.30;59.70;;;;;;5030051;28;20182;-74
2022/02/05 12:36:40;;;;;;;12.80;2.70;;;21.30;59.40;;;;;;5046739;28;20268;-78
2022/02/05 12:39:30;;;;;;;13.67;2.43;;;21.30;59.60;;;;;;5031350;28;20177;-73
2022/02/05 12:42:08;;;;;;;12.70;2.27;;;21.30;60.60;;;;;;5031353;28;20607;-72
2022/02/05 12:44:38;;;;;;;12.73;2.73;;;21.20;61.00;;;;;;5025863;28;20587;-72
2022/02/05 12:47:12;;;;;;;11.20;2.40;;;21.20;61.70;;;;;;5027087;28;20207;-73
2022/02/05 12:52:11;;;;;;;12.93;2.20;;;21.20;62.50;;;;;;5030489;28;20180;-71
2022/02/05 12:54:48;;;;;;;15.20;2.10;;;21.10;63.00;;;;;;5030630;28;20262;-76
2022/02/05 12:57:20;;;;;;;17.83;2.90;;;21.00;63.10;;;;;;5030699;28;20275;-71
2022/02/05 12:59:48;;;;;;;15.37;3.43;;;21.00;63.10;;;;;;5046762;28;20541;-71
2022/02/05 13:02:17;;;;;;;14.47;2.73;;;21.00;63.30;;;;;;5031365;28;20184;-75
2022/02/05 13:04:50;;;;;;;13.77;3.13;;;21.00;63.70;;;;;;5031832;28;20599;-72
2022/02/05 13:07:23;;;;;;;17.50;2.33;;;20.90;63.50;;;;;;5031041;28;20185;-74
2022/02/05 13:09:54;;;;;;;13.43;3.17;;;21.00;63.40;;;;;;5031874;28;20181;-73
2022/02/05 13:12:34;;;;;;;18.13;2.80;;;21.00;63.50;;;;;;5031177;28;20177;-74
2022/02/05 13:15:21;;;;;;;15.33;2.20;;;21.10;63.50;;;;;;5031505;28;20242;-74
2022/02/05 13:26:05;;;;;;;19.10;3.33;;;21.30;64.70;;;;;;5027671;28;20203;-73
2022/02/05 13:28:40;;;;;;;13.67;2.67;;;21.30;64.60;;;;;;5027193;28;20203;-74
2022/02/05 13:34:24;;;;;;;12.97;2.97;;;21.30;63.80;;;;;;5031398;28;20533;-72
2022/02/05 13:44:24;;;;;;;14.50;2.77;;;21.30;63.20;;;;;;5031289;28;20185;-76
2022/02/05 13:47:17;;;;;;;16.30;2.43;;;21.20;62.70;;;;;;5032492;28;20219;-73
2022/02/05 13:50:12;;;;;;;16.77;2.80;;;21.20;62.80;;;;;;5027369;28;20204;-73
2022/02/05 13:52:51;;;;;;;14.60;2.90;;;21.20;62.60;;;;;;5032702;28;20191;-73
2022/02/05 13:55:20;;;;;;;16.37;2.93;;;21.20;62.40;;;;;;5034568;28;20228;-73
2022/02/05 13:58:02;;;;;;;11.63;2.83;;;21.20;62.00;;;;;;5035197;28;20211;-73
2022/02/05 14:00:43;;;;;;;19.10;3.20;;;21.20;61.70;;;;;;5035578;28;20171;-75
2022/02/05 14:03:12;;;;;;;14.17;2.90;;;21.20;62.20;;;;;;5034113;28;20180;-75
2022/02/05 14:06:00;;;;;;;14.33;3.00;;;21.20;62.30;;;;;;5034195;28;20181;-75
2022/02/05 14:08:35;;;;;;;13.27;2.80;;;21.20;62.20;;;;;;5030936;28;20674;-74
2022/02/05 14:11:07;;;;;;;17.27;2.73;;;21.20;62.00;;;;;;5034673;28;20262;-72
2022/02/05 14:13:36;;;;;;;15.73;2.97;;;21.20;62.20;;;;;;5034097;28;20208;-74
2022/02/05 14:16:06;;;;;;;17.10;3.17;;;21.20;62.40;;;;;;5034164;28;20306;-74
2022/02/05 14:18:56;;;;;;;19.80;3.23;;;21.10;62.60;;;;;;5031907;28;20173;-71
2022/02/05 14:21:39;;;;;;;18.17;2.60;;;21.10;62.00;;;;;;5036953;28;20192;-73
2022/02/05 14:24:17;;;;;;;14.40;2.63;;;21.20;61.00;;;;;;5032824;28;20188;-75
2022/02/05 14:26:56;;;;;;;17.70;3.23;;;21.20;60.70;;;;;;5036625;28;20180;-73
2022/02/05 14:29:24;;;;;;;11.50;2.70;;;21.10;61.00;;;;;;5033128;28;20184;-75
2022/02/05 14:31:55;;;;;;;14.73;3.17;;;21.20;61.40;;;;;;5032967;28;20193;-75
2022/02/05 14:42:39;;;;;;;15.80;2.70;;;21.00;61.90;;;;;;5034142;28;20296;-73
2022/02/05 14:45:07;;;;;;;12.10;2.67;;;21.00;62.00;;;;;;5033507;28;20188;-74
2022/02/05 14:47:34;;;;;;;12.10;2.83;;;21.00;62.10;;;;;;5033841;28;20276;-73
2022/02/05 14:50:05;;;;;;;14.30;3.60;;;20.90;62.50;;;;;;5032145;28;20193;-79
2022/02/05 14:52:32;;;;;;;15.63;3.17;;;20.80;62.70;;;;;;5033557;28;20184;-73
2022/02/05 14:55:00;;;;;;;13.47;2.50;;;20.80;62.40;;;;;;5031019;28;20212;-73
2022/02/05 14:57:27;;;;;;;16.27;2.73;;;20.80;61.70;;;;;;5033092;28;20183;-75
2022/02/05 14:59:54;;;;;;;12.13;2.63;;;20.90;60.90;;;;;;5036863;28;20185;-73
2022/02/05 15:02:22;;;;;;;13.03;2.97;;;21.00;60.10;;;;;;5032917;28;20177;-74
2022/02/05 15:04:49;;;;;;;12.27;2.47;;;21.00;59.20;;;;;;5033340;28;20188;-75
2022/02/05 15:07:19;;;;;;;17.53;3.20;;;21.10;58.10;;;;;;5032759;28;20188;-73
2022/02/05 15:09:47;;;;;;;17.80;3.00;;;21.10;57.90;;;;;;5033147;28;20181;-75
2022/02/05 15:12:15;;;;;;;13.30;3.37;;;21.00;58.20;;;;;;5032790;28;20192;-75
2022/02/05 15:14:42;;;;;;;15.17;3.33;;;21.10;58.80;;;;;;5033225;28;20208;-74
2022/02/05 15:17:09;;;;;;;17.67;3.10;;;21.20;60.50;;;;;;5032426;28;20235;-75
2022/02/05 15:19:37;;;;;;;13.17;3.10;;;21.10;60.90;;;;;;5033524;28;20263;-73
2022/02/05 15:22:04;;;;;;;16.50;3.00;;;21.20;61.20;;;;;;5032525;28;20216;-78
2022/02/05 15:24:32;;;;;;;17.00;2.77;;;21.20;60.70;;;;;;5031030;28;20303;-73
2022/02/05 15:26:59;;;;;;;12.23;2.93;;;21.20;60.60;;;;;;5032326;28;20181;-74
2022/02/05 15:29:27;;;;;;;9.47;2.50;;;21.30;60.30;;;;;;5030247;28;20230;-72
2022/02/05 15:31:54;;;;;;;10.83;2.47;;;21.30;59.70;;;;;;5035712;28;20259;-74
2022/02/05 15:34:21;;;;;;;6.77;2.30;;;21.20;59.70;;;;;;5031942;28;20169;-77
2022/02/05 15:36:56;;;;;;;13.07;2.60;;;21.20;59.70;;;;;;5033272;28;20187;-77
2022/02/05 15:44:42;;;;;;;12.40;2.10;;;21.20;58.80;;;;;;5032157;28;20187;-73
2022/02/05 15:47:09;;;;;;;10.40;2.10;;;21.10;59.10;;;;;;5031338;28;20180;-72
2022/02/05 15:49:37;;;;;;;10.80;2.27;;;21.00;59.40;;;;;;5031337;28;20184;-74
2022/02/05 15:52:06;;;;;;;12.13;2.40;;;21.00;60.00;;;;;;5030643;28;20199;-73
2022/02/05 15:54:34;;;;;;;10.10;2.47;;;21.00;60.00;;;;;;5032272;28;20212;-75
2022/02/05 15:57:07;;;;;;;16.93;2.97;;;21.00;60.40;;;;;;5032120;28;20188;-73
2022/02/05 15:59:52;;;;;;;11.80;2.73;;;21.10;60.50;;;;;;5031459;28;20268;-73
2022/02/05 16:02:20;;;;;;;18.23;2.80;;;21.10;61.80;;;;;;5031468;28;20644;-73
2022/02/05 16:04:48;;;;;;;17.57;2.60;;;21.10;63.10;;;;;;5032441;28;20544;-73
2022/02/05 16:07:15;;;;;;;15.13;2.77;;;20.90;64.40;;;;;;5032283;28;20181;-74
2022/02/05 16:09:43;;;;;;;10.93;2.73;;;20.80;64.90;;;;;;5032312;28;20229;-73
2022/02/05 16:12:14;;;;;;;9.53;2.10;;;20.70;65.00;;;;;;5031721;28;20260;-73
2022/02/05 16:14:41;;;;;;;16.40;2.13;;;20.60;65.00;;;;;;5030696;28;20218;-72
2022/02/05 16:17:09;;;;;;;8.93;2.00;;;20.50;64.60;;;;;;5031029;28;20207;-72
2022/02/05 16:19:38;;;;;;;7.10;2.13;;;20.40;64.70;;;;;;5030463;28;20184;-72
2022/02/05 16:22:05;;;;;;;10.57;2.27;;;20.40;65.30;;;;;;5033173;28;20298;-74
2022/02/05 16:24:33;;;;;;;15.40;2.67;;;20.30;65.50;;;;;;5032309;28;20218;-73
2022/02/05 16:27:00;;;;;;;14.53;2.63;;;20.30;66.20;;;;;;5031231;28;20181;-73